London Star — A8KN4 — position and weather

sailwx.info

Track history (hours):
 
Tides and Currents Weather Stations Pressure Air Temp Water Temp Dewpoint Dewpoint Depression Visibility Wind Speed Wind Dir Waves Ship Positions

London Star

Last reported at 2018-Jun-12 02:57 UTC. Time now 2018-Jun-18 15:43 UTC.
Position N 09°36' W 075°55'.

Length 228 m; draft 8.8 m.

Type: Ship. MMSI: 636091177.

Date/timePositionNaut miles runAvg speedWind from/ knotsBaromVisibWave heightAir tempDewpointWater temp
2018-Jun-12 02:57N 09°36' W 075°55'712.0
2018-Jun-12 02:22N 09°32' W 075°49'4 1.6
2018-Jun-11 23:41N 09°29' W 075°46'0 0.1
2018-Jun-11 23:26N 09°29' W 075°46'0 0.0
2018-Jun-11 16:17N 09°29' W 075°46'0 0.0
2018-Jun-11 15:58N 09°29' W 075°46'0 0.1
2018-Jun-11 14:52N 09°29' W 075°46'0 0.1
2018-Jun-11 14:19N 09°29' W 075°46'0 0.0
2018-Jun-11 09:14N 09°29' W 075°46'0 0.1
2018-Jun-11 08:59N 09°29' W 075°46'2 0.8
2018-Jun-11 06:36N 09°31' W 075°47'0 0.8
2018-Jun-11 06:29N 09°31' W 075°47'2 4.6
2018-Jun-11 06:00N 09°33' W 075°48'0 0.6
2018-Jun-11 05:30N 09°33' W 075°48'2 1.2
2018-Jun-11 04:02N 09°32' W 075°49'1 3.3
2018-Jun-11 03:50N 09°31' W 075°49'4 9.6
2018-Jun-11 03:22N 09°33' W 075°53'54 1.4
2018-Jun-09 12:50N 09°53' W 076°45'6 8.3
2018-Jun-09 12:05N 09°59' W 076°44'1 7.3
2018-Jun-09 11:58N 10°00' W 076°43'7 0.9
2018-Jun-09 04:13N 09°58' W 076°50'0 1.5
2018-Jun-09 04:00N 09°58' W 076°49'1 1.5
2018-Jun-09 03:10N 09°59' W 076°48'0 1.5
2018-Jun-09 03:00N 09°59' W 076°48'1 1.6
2018-Jun-09 02:30N 09°59' W 076°47'3 1.4
2018-Jun-09 00:17N 10°00' W 076°45'1 1.3
2018-Jun-08 23:50N 10°01' W 076°44'1 1.8
2018-Jun-08 23:30N 10°01' W 076°43'13 3.0
2018-Jun-08 19:02N 10°04' W 076°57'111.9
2018-Jun-08 18:59N 10°04' W 076°57'  
2018-Jun-03 23:45N 10°00' W 076°51'0 1.7
2018-Jun-03 23:28N 10°01' W 076°51'179 6.8
2018-Jun-02 21:03N 09°31' W 079°50'113.4
2018-Jun-02 20:59N 09°31' W 079°51'713.1
2018-Jun-02 20:29N 09°26' W 079°55'510.5
2018-Jun-02 20:01N 09°21' W 079°55'3 6.9
2018-Jun-02 19:30N 09°17' W 079°55'1 1.4
2018-Jun-02 19:00N 09°16' W 079°55'0 0.6
2018-Jun-02 18:30N 09°16' W 079°55'0 0.7
2018-Jun-02 18:00N 09°16' W 079°55'2 4.1
2018-Jun-02 17:27N 09°14' W 079°55'  
Track history (hours):
 
Tides and Currents Weather Stations Pressure Air Temp Water Temp Dewpoint Dewpoint Depression Visibility Wind Speed Wind Dir Waves Ship Positions

London Star

Last reported at 2018-Jun-12 02:57 UTC. Time now 2018-Jun-18 15:43 UTC.
Position N 09°36' W 075°55'.

Length 228 m; draft 8.8 m.

Type: Ship. MMSI: 636091177.

Date/timePositionNaut miles runAvg speedWind from/ knotsBaromVisibWave heightAir tempDewpointWater temp
2018-Jun-12 02:57N 09°36' W 075°55'712.0
2018-Jun-12 02:22N 09°32' W 075°49'4 1.6
2018-Jun-11 23:41N 09°29' W 075°46'0 0.1
2018-Jun-11 23:26N 09°29' W 075°46'0 0.0
2018-Jun-11 16:17N 09°29' W 075°46'0 0.0
2018-Jun-11 15:58N 09°29' W 075°46'0 0.1
2018-Jun-11 14:52N 09°29' W 075°46'0 0.1
2018-Jun-11 14:19N 09°29' W 075°46'0 0.0
2018-Jun-11 09:14N 09°29' W 075°46'0 0.1
2018-Jun-11 08:59N 09°29' W 075°46'2 0.8
2018-Jun-11 06:36N 09°31' W 075°47'0 0.8
2018-Jun-11 06:29N 09°31' W 075°47'2 4.6
2018-Jun-11 06:00N 09°33' W 075°48'0 0.6
2018-Jun-11 05:30N 09°33' W 075°48'2 1.2
2018-Jun-11 04:02N 09°32' W 075°49'1 3.3
2018-Jun-11 03:50N 09°31' W 075°49'4 9.6
2018-Jun-11 03:22N 09°33' W 075°53'54 1.4
2018-Jun-09 12:50N 09°53' W 076°45'6 8.3
2018-Jun-09 12:05N 09°59' W 076°44'1 7.3
2018-Jun-09 11:58N 10°00' W 076°43'7 0.9
2018-Jun-09 04:13N 09°58' W 076°50'0 1.5
2018-Jun-09 04:00N 09°58' W 076°49'1 1.5
2018-Jun-09 03:10N 09°59' W 076°48'0 1.5
2018-Jun-09 03:00N 09°59' W 076°48'1 1.6
2018-Jun-09 02:30N 09°59' W 076°47'3 1.4
2018-Jun-09 00:17N 10°00' W 076°45'1 1.3
2018-Jun-08 23:50N 10°01' W 076°44'1 1.8
2018-Jun-08 23:30N 10°01' W 076°43'13 3.0
2018-Jun-08 19:02N 10°04' W 076°57'111.9
2018-Jun-08 18:59N 10°04' W 076°57'  
2018-Jun-03 23:45N 10°00' W 076°51'0 1.7
2018-Jun-03 23:28N 10°01' W 076°51'179 6.8
2018-Jun-02 21:03N 09°31' W 079°50'113.4
2018-Jun-02 20:59N 09°31' W 079°51'713.1
2018-Jun-02 20:29N 09°26' W 079°55'510.5
2018-Jun-02 20:01N 09°21' W 079°55'3 6.9
2018-Jun-02 19:30N 09°17' W 079°55'1 1.4
2018-Jun-02 19:00N 09°16' W 079°55'0 0.6
2018-Jun-02 18:30N 09°16' W 079°55'0 0.7
2018-Jun-02 18:00N 09°16' W 079°55'2 4.1
2018-Jun-02 17:27N 09°14' W 079°55'  

Dump ship's entire track history